createdAt,value
2023-01-11T00:01:12.339Z,4.01
2023-01-11T00:03:39.095Z,4.03
2023-01-11T00:06:07.937Z,4.06
2023-01-11T00:08:37.155Z,4.09
2023-01-11T00:11:04.434Z,4.09
2023-01-11T00:13:31.602Z,4.06
2023-01-11T00:16:05.171Z,4.08
2023-01-11T00:18:31.737Z,4.03
2023-01-11T00:21:05.412Z,3.97
2023-01-11T00:23:38.241Z,4.13
2023-01-11T00:26:06.630Z,4.08
2023-01-11T00:28:35.657Z,4.15
2023-01-11T00:31:04.559Z,4.09
2023-01-11T00:33:31.502Z,4.10
2023-01-11T00:35:58.063Z,4.25
2023-01-11T00:38:43.418Z,4.05
2023-01-11T00:41:30.928Z,4.11
2023-01-11T00:44:15.667Z,4.04
2023-01-11T00:47:01.188Z,4.14
2023-01-11T00:49:27.816Z,4.11
2023-01-11T00:51:54.384Z,4.00
2023-01-11T00:54:20.967Z,3.90
2023-01-11T00:56:49.769Z,4.00
2023-01-11T00:59:16.519Z,4.00
2023-01-11T01:01:43.068Z,4.07
2023-01-11T01:04:16.652Z,3.95
2023-01-11T01:06:46.039Z,3.99
2023-01-11T01:09:15.345Z,3.87
2023-01-11T01:11:41.908Z,3.93
2023-01-11T01:14:29.849Z,3.88
2023-01-11T01:17:07.802Z,3.86
2023-01-11T01:19:39.152Z,3.91
2023-01-11T01:22:06.015Z,3.78
2023-01-11T01:24:35.025Z,3.87
2023-01-11T01:27:01.810Z,3.89
2023-01-11T01:29:28.585Z,3.88
2023-01-11T01:31:55.187Z,3.78
2023-01-11T01:34:21.778Z,3.83
2023-01-11T01:36:48.351Z,3.91
2023-01-11T01:39:17.183Z,3.83
2023-01-11T01:41:43.753Z,3.88
2023-01-11T01:44:54.571Z,3.86
2023-01-11T01:47:27.086Z,3.83
2023-01-11T01:49:54.251Z,3.76
2023-01-11T01:52:21.725Z,3.84
2023-01-11T01:54:49.521Z,3.70
2023-01-11T01:57:25.533Z,3.75
2023-01-11T01:59:56.941Z,3.64
2023-01-11T02:02:26.578Z,3.79
2023-01-11T02:04:56.901Z,3.75
2023-01-11T02:07:29.872Z,3.67
2023-01-11T02:10:16.435Z,3.79
2023-01-11T02:12:52.105Z,3.82
2023-01-11T02:15:22.533Z,3.75
2023-01-11T02:17:51.461Z,3.74
2023-01-11T02:20:26.956Z,3.75
2023-01-11T02:22:59.407Z,3.81
2023-01-11T02:25:36.473Z,3.78
2023-01-11T02:28:03.061Z,3.67
2023-01-11T02:30:32.446Z,3.68
2023-01-11T02:33:17.615Z,3.73
2023-01-11T02:36:01.005Z,3.81
2023-01-11T02:38:37.644Z,3.78
2023-01-11T02:41:12.432Z,3.82
2023-01-11T02:44:29.464Z,3.95
2023-01-11T02:47:02.420Z,4.01
2023-01-11T02:49:42.626Z,3.83
2023-01-11T02:52:12.959Z,3.91
2023-01-11T02:54:45.460Z,3.92
2023-01-11T02:57:13.967Z,3.84
2023-01-11T02:59:44.405Z,3.82
2023-01-11T03:02:13.279Z,3.78
2023-01-11T03:04:39.833Z,3.85
2023-01-11T03:07:29.789Z,3.93
2023-01-11T03:10:08.488Z,4.00
2023-01-11T03:12:54.879Z,3.96
2023-01-11T03:15:49.557Z,3.99
2023-01-11T03:18:39.785Z,4.13
2023-01-11T03:21:25.026Z,4.09
2023-01-11T03:24:28.723Z,4.10
2023-01-11T03:27:10.445Z,4.10
2023-01-11T03:29:46.155Z,4.17
2023-01-11T03:32:32.523Z,4.09
2023-01-11T03:35:07.644Z,3.99
2023-01-11T03:38:04.939Z,4.05
2023-01-11T03:40:40.252Z,4.03
2023-01-11T03:43:11.695Z,3.97
2023-01-11T03:46:06.618Z,4.01
2023-01-11T03:48:40.117Z,3.71
2023-01-11T03:51:14.791Z,3.53
2023-01-11T03:53:46.570Z,3.72
2023-01-11T03:56:16.869Z,3.49
2023-01-11T03:58:46.619Z,3.44
2023-01-11T04:01:16.162Z,3.31
2023-01-11T04:03:42.757Z,3.36
2023-01-11T04:06:11.347Z,3.67
2023-01-11T04:08:37.904Z,3.66
2023-01-11T04:11:05.183Z,3.71
2023-01-11T04:13:34.056Z,3.60
2023-01-11T04:16:05.710Z,3.73
2023-01-11T04:18:34.996Z,3.70
2023-01-11T04:21:01.704Z,3.80
2023-01-11T04:23:28.292Z,3.93
2023-01-11T04:25:59.790Z,3.94
2023-01-11T04:28:26.305Z,3.96
2023-01-11T04:30:57.703Z,3.91
2023-01-11T04:33:26.472Z,3.95
2023-01-11T04:35:57.849Z,3.91
2023-01-11T04:38:29.232Z,3.89
2023-01-11T04:41:15.743Z,3.96
2023-01-11T04:43:42.270Z,3.81
2023-01-11T04:46:13.294Z,3.77
2023-01-11T04:48:40.852Z,3.84
2023-01-11T04:51:08.683Z,3.88
2023-01-11T04:53:35.822Z,4.01
2023-01-11T04:56:07.071Z,4.02
2023-01-11T04:58:38.085Z,4.13
2023-01-11T05:01:15.021Z,3.95
2023-01-11T05:03:45.387Z,3.94
2023-01-11T05:06:14.816Z,3.79
2023-01-11T05:08:45.137Z,3.90
2023-01-11T05:11:14.213Z,3.99
2023-01-11T05:13:43.716Z,3.97
2023-01-11T05:16:23.872Z,4.09
2023-01-11T05:18:55.396Z,3.93
2023-01-11T05:21:27.313Z,4.12
2023-01-11T05:23:54.902Z,4.01
2023-01-11T05:26:27.385Z,4.00
2023-01-11T05:29:01.468Z,4.12
2023-01-11T05:31:31.904Z,4.14
2023-01-11T05:33:59.026Z,4.02
2023-01-11T05:36:27.207Z,3.94
2023-01-11T05:38:56.078Z,3.74
2023-01-11T05:41:25.964Z,4.10
2023-01-11T05:44:11.985Z,3.96
2023-01-11T05:46:40.790Z,3.85
2023-01-11T05:49:08.767Z,3.90
2023-01-11T05:51:40.795Z,3.87
2023-01-11T05:54:11.511Z,3.86
2023-01-11T05:56:38.289Z,3.94
2023-01-11T05:59:07.181Z,3.90
2023-01-11T06:01:36.002Z,3.79
2023-01-11T06:04:02.637Z,3.63
2023-01-11T06:06:29.354Z,3.47
2023-01-11T06:08:55.985Z,3.40
2023-01-11T06:11:22.862Z,3.38
2023-01-11T06:13:52.044Z,3.42
2023-01-11T06:16:20.532Z,3.35
2023-01-11T06:18:51.619Z,3.36
2023-01-11T06:21:19.656Z,3.40
2023-01-11T06:23:50.691Z,3.58
2023-01-11T06:26:20.078Z,3.70
2023-01-11T06:28:50.246Z,3.67
2023-01-11T06:31:18.128Z,3.70
2023-01-11T06:33:45.869Z,3.77
2023-01-11T06:36:13.714Z,3.87
2023-01-11T06:38:44.982Z,3.78
2023-01-11T06:41:13.373Z,3.87
2023-01-11T06:44:04.315Z,3.79
2023-01-11T06:50:52.222Z,3.59
2023-01-11T06:53:29.075Z,3.37
2023-01-11T06:55:57.846Z,3.19
2023-01-11T06:58:33.323Z,3.18
2023-01-11T07:06:06.085Z,3.11
2023-01-11T07:12:28.257Z,2.98
2023-01-11T07:14:57.145Z,2.99
2023-01-11T07:17:31.549Z,2.88
2023-01-11T07:19:58.144Z,2.96
2023-01-11T07:26:07.974Z,2.78
2023-01-11T07:28:37.816Z,2.89
2023-01-11T07:31:05.226Z,2.79
2023-01-11T07:33:31.915Z,2.92
2023-01-11T07:36:00.731Z,3.22
2023-01-11T07:38:30.225Z,3.47
2023-01-11T07:40:59.081Z,3.58
2023-01-11T07:47:12.339Z,3.71
2023-01-11T07:53:26.449Z,3.78
2023-01-11T07:59:42.638Z,4.10
2023-01-11T08:02:13.733Z,4.20
2023-01-11T08:04:42.653Z,4.27
2023-01-11T08:07:09.193Z,4.22
2023-01-11T08:09:35.761Z,4.24
2023-01-11T08:12:23.482Z,4.12
2023-01-11T08:14:52.514Z,4.03
2023-01-11T08:17:19.069Z,4.03
2023-01-11T08:19:45.678Z,4.03
2023-01-11T08:22:12.526Z,4.17
2023-01-11T08:24:39.096Z,4.27
2023-01-11T08:27:07.901Z,4.31
2023-01-11T08:29:34.618Z,4.40
2023-01-11T08:32:01.487Z,4.57
2023-01-11T08:34:29.171Z,4.35
2023-01-11T08:36:57.582Z,4.31
2023-01-11T08:39:24.791Z,4.31
2023-01-11T08:41:53.569Z,4.22
2023-01-11T08:44:33.256Z,3.63
2023-01-11T08:47:01.299Z,3.83
2023-01-11T08:49:27.861Z,4.10
2023-01-11T08:51:54.428Z,4.24
2023-01-11T08:54:24.885Z,4.33
2023-01-11T08:56:51.527Z,4.41
2023-01-11T08:59:22.060Z,4.48
2023-01-11T09:01:48.788Z,4.49
2023-01-11T09:04:25.532Z,4.61
2023-01-11T09:06:53.680Z,4.54
2023-01-11T09:09:22.581Z,4.61
2023-01-11T09:12:09.070Z,4.71
2023-01-11T09:14:40.916Z,4.72
2023-01-11T09:17:09.959Z,4.91
2023-01-11T09:26:58.092Z,5.73
2023-01-11T09:29:24.879Z,5.81
2023-01-11T09:31:51.525Z,6.03
2023-01-11T09:34:19.249Z,6.09
2023-01-11T09:36:53.183Z,6.25
2023-01-11T09:39:23.452Z,6.41
2023-01-11T09:42:16.548Z,6.52
2023-01-11T09:45:00.362Z,6.52
2023-01-11T09:47:54.459Z,6.69
2023-01-11T09:50:26.633Z,6.77
2023-01-11T09:53:40.847Z,6.97
2023-01-11T09:56:15.667Z,7.15
2023-01-11T09:58:46.850Z,6.99
2023-01-11T10:01:33.832Z,7.18
2023-01-11T10:04:14.006Z,7.30
2023-01-11T10:07:04.293Z,7.50
2023-01-11T10:18:34.256Z,7.75
2023-01-11T10:19:40.741Z,7.93
2023-01-11T10:26:10.940Z,7.91
2023-01-11T10:28:54.499Z,7.99
2023-01-11T10:31:51.686Z,7.96
2023-01-11T10:34:51.223Z,8.30
2023-01-11T10:37:25.823Z,8.32
2023-01-11T10:40:33.312Z,8.41
2023-01-11T10:43:12.973Z,8.28
2023-01-11T10:46:02.785Z,8.61
2023-01-11T10:48:34.485Z,8.62
2023-01-11T10:51:16.815Z,8.56
2023-01-11T10:53:49.606Z,8.42
2023-01-11T10:56:25.380Z,8.64
2023-01-11T10:59:25.539Z,8.73
2023-01-11T11:02:09.293Z,8.75
2023-01-11T11:04:53.212Z,8.78
2023-01-11T11:07:52.115Z,8.77
2023-01-11T11:10:54.477Z,8.81
2023-01-11T11:13:52.239Z,8.71
2023-01-11T11:16:21.877Z,8.67
2023-01-11T11:18:53.740Z,8.71
2023-01-11T11:21:30.625Z,8.88
2023-01-11T11:24:21.269Z,8.81
2023-01-11T11:26:57.353Z,8.63
2023-01-11T11:29:29.275Z,8.89
2023-01-11T11:32:01.605Z,9.07
2023-01-11T11:39:00.004Z,8.91
2023-01-11T11:41:57.683Z,9.03
2023-01-11T11:44:30.720Z,8.99
2023-01-11T11:46:58.106Z,8.81
2023-01-11T11:49:26.996Z,8.96
2023-01-11T11:51:54.466Z,8.97
2023-01-11T11:54:25.862Z,9.04
2023-01-11T11:56:54.016Z,8.94
2023-01-11T11:59:47.335Z,8.83
2023-01-11T12:10:02.101Z,9.11
2023-01-11T12:16:29.618Z,9.18
2023-01-11T12:18:58.455Z,9.29
2023-01-11T12:21:31.942Z,9.07
2023-01-11T12:24:28.179Z,9.13
2023-01-11T12:27:06.976Z,9.01
2023-01-11T12:29:59.166Z,8.87
2023-01-11T12:32:41.958Z,9.11
2023-01-11T12:35:26.403Z,9.10
2023-01-11T12:37:56.100Z,9.16
2023-01-11T12:41:12.226Z,9.40
2023-01-11T12:43:57.201Z,9.41
2023-01-11T12:50:25.566Z,9.38
2023-01-11T12:53:11.032Z,9.32
2023-01-11T12:55:59.270Z,9.20
2023-01-11T12:58:44.588Z,9.23
2023-01-11T13:01:13.813Z,9.39
2023-01-11T13:03:45.513Z,9.35
2023-01-11T13:06:45.696Z,9.22
2023-01-11T13:21:02.460Z,9.10
2023-01-11T13:24:03.462Z,9.07
2023-01-11T13:26:45.495Z,9.05
2023-01-11T13:29:30.894Z,8.86
2023-01-11T13:32:00.660Z,8.84
2023-01-11T13:34:35.097Z,8.70
2023-01-11T13:37:16.379Z,8.76
2023-01-11T13:39:52.789Z,8.72
2023-01-11T13:56:45.373Z,8.76
2023-01-11T13:59:26.328Z,8.69
2023-01-11T14:02:12.939Z,8.61
2023-01-11T14:04:52.073Z,8.63
2023-01-11T14:07:26.777Z,8.65
2023-01-11T14:10:24.618Z,8.53
2023-01-11T14:17:06.851Z,8.41
2023-01-11T14:23:41.145Z,8.49
2023-01-11T14:27:43.948Z,8.26
2023-01-11T14:33:46.245Z,8.11
2023-01-11T14:36:28.052Z,7.99
2023-01-11T14:39:26.476Z,8.02
2023-01-11T14:42:31.251Z,8.03
2023-01-11T14:45:28.620Z,7.96
2023-01-11T14:52:03.329Z,7.85
2023-01-11T15:01:06.775Z,7.74
2023-01-11T15:03:42.520Z,7.70
2023-01-11T15:06:16.512Z,7.61
2023-01-11T15:08:53.430Z,7.52
2023-01-11T15:11:19.926Z,7.51
2023-01-11T15:13:52.783Z,7.31
2023-01-11T15:23:29.325Z,7.16
2023-01-11T15:26:03.978Z,7.05
2023-01-11T15:28:56.600Z,6.92
2023-01-11T15:31:34.171Z,6.84
2023-01-11T15:34:17.983Z,6.83
2023-01-11T15:40:36.858Z,6.83
2023-01-11T15:50:42.239Z,6.52
2023-01-11T15:53:30.068Z,6.38
2023-01-11T15:56:20.958Z,6.20
2023-01-11T15:59:25.205Z,6.15
2023-01-11T16:01:57.473Z,5.98
2023-01-11T16:04:30.681Z,5.86
2023-01-11T16:07:40.515Z,5.98
2023-01-11T16:10:15.472Z,5.92
2023-01-11T16:13:15.983Z,5.61
2023-01-11T16:16:22.715Z,5.66
2023-01-11T16:19:13.997Z,5.81
2023-01-11T16:21:42.214Z,5.82
2023-01-11T16:24:15.740Z,5.78
2023-01-11T16:26:42.500Z,5.82
2023-01-11T16:29:23.603Z,5.88
2023-01-11T16:31:57.166Z,5.89
2023-01-11T16:34:24.568Z,5.92
2023-01-11T16:36:53.396Z,5.82
2023-01-11T16:39:26.724Z,5.72
2023-01-11T16:41:58.043Z,5.53
2023-01-11T16:44:41.134Z,5.50
2023-01-11T16:47:15.049Z,5.48
2023-01-11T16:49:48.847Z,5.46
2023-01-11T16:52:27.676Z,4.89
2023-01-11T16:54:56.037Z,5.03
2023-01-11T16:57:37.280Z,5.00
2023-01-11T17:00:07.365Z,5.01
2023-01-11T17:02:40.128Z,5.16
2023-01-11T17:05:23.814Z,5.06
2023-01-11T17:07:50.426Z,5.06
2023-01-11T17:10:24.968Z,5.04
2023-01-11T17:13:34.110Z,4.91
2023-01-11T17:16:08.502Z,4.82
2023-01-11T17:18:38.855Z,4.91
2023-01-11T17:21:07.300Z,5.04
2023-01-11T17:23:36.307Z,5.08
2023-01-11T17:28:31.901Z,5.28
2023-01-11T17:30:59.267Z,5.28
2023-01-11T17:33:33.481Z,5.29
2023-01-11T17:36:01.269Z,5.05
2023-01-11T17:38:32.095Z,5.07
2023-01-11T17:41:01.263Z,4.93
2023-01-11T17:43:46.957Z,4.95
2023-01-11T17:46:19.579Z,4.91
2023-01-11T17:49:00.552Z,4.73
2023-01-11T17:51:35.112Z,4.87
2023-01-11T17:54:06.943Z,4.86
2023-01-11T17:56:37.839Z,4.74
2023-01-11T17:59:22.211Z,4.40
2023-01-11T18:01:52.136Z,4.43
2023-01-11T18:04:25.498Z,4.34
2023-01-11T18:07:06.387Z,4.57
2023-01-11T18:09:39.391Z,4.71
2023-01-11T18:12:07.932Z,4.68
2023-01-11T18:14:56.937Z,4.59
2023-01-11T18:17:36.625Z,4.53
2023-01-11T18:20:15.292Z,4.48
2023-01-11T18:22:56.272Z,4.45
2023-01-11T18:25:26.821Z,4.07
2023-01-11T18:28:14.073Z,4.21
2023-01-11T18:30:46.122Z,4.36
2023-01-11T18:33:22.737Z,4.48
2023-01-11T18:35:52.073Z,4.37
2023-01-11T18:38:22.152Z,4.50
2023-01-11T18:40:51.036Z,4.56
2023-01-11T18:43:26.655Z,4.56
2023-01-11T18:45:55.618Z,4.45
2023-01-11T18:48:24.696Z,4.37
2023-01-11T18:50:52.149Z,4.30
2023-01-11T18:53:18.813Z,4.34
2023-01-11T18:55:50.633Z,4.33
2023-01-11T18:58:17.329Z,4.27
2023-01-11T19:00:43.904Z,4.17
2023-01-11T19:03:12.359Z,4.27
2023-01-11T19:05:48.555Z,3.98
2023-01-11T19:08:15.173Z,4.12
2023-01-11T19:10:41.777Z,4.27
2023-01-11T19:13:08.459Z,4.29
2023-01-11T19:15:36.122Z,4.22
2023-01-11T19:18:03.797Z,4.24
2023-01-11T19:20:33.739Z,4.16
2023-01-11T19:23:00.307Z,4.05
2023-01-11T19:25:27.162Z,3.95
2023-01-11T19:28:08.500Z,3.86
2023-01-11T19:30:39.305Z,3.68
2023-01-11T19:33:06.135Z,3.77
2023-01-11T19:35:59.539Z,3.70
2023-01-11T19:38:27.344Z,3.52
2023-01-11T19:40:54.059Z,3.51
2023-01-11T19:43:27.191Z,3.48
2023-01-11T19:46:00.217Z,3.58
2023-01-11T19:48:31.875Z,3.65
2023-01-11T19:51:06.863Z,3.42
2023-01-11T19:53:36.500Z,3.28
2023-01-11T19:56:09.073Z,3.35
2023-01-11T19:58:39.012Z,3.12
2023-01-11T20:01:12.517Z,3.00
2023-01-11T20:03:44.921Z,2.90
2023-01-11T20:06:11.605Z,2.89
2023-01-11T20:08:41.239Z,3.00
2023-01-11T20:11:18.769Z,2.86
2023-01-11T20:13:56.195Z,3.01
2023-01-11T20:16:24.221Z,3.12
2023-01-11T20:18:57.345Z,2.96
2023-01-11T20:21:27.056Z,2.92
2023-01-11T20:23:55.201Z,3.04
2023-01-11T20:26:24.622Z,3.07
2023-01-11T20:28:54.511Z,2.89
2023-01-11T20:31:27.380Z,2.92
2023-01-11T20:34:07.279Z,2.79
2023-01-11T20:36:35.005Z,2.70
2023-01-11T20:39:01.728Z,2.66
2023-01-11T20:41:49.324Z,2.48
2023-01-11T20:44:32.399Z,2.71
2023-01-11T20:46:59.727Z,2.76
2023-01-11T20:49:31.482Z,2.90
2023-01-11T20:52:01.716Z,2.98
2023-01-11T20:54:28.756Z,2.92
2023-01-11T20:56:58.449Z,2.95
2023-01-11T20:59:28.721Z,2.91
2023-01-11T21:01:55.297Z,2.82
2023-01-11T21:04:21.880Z,2.87
2023-01-11T21:06:50.411Z,2.82
2023-01-11T21:09:19.840Z,2.82
2023-01-11T21:11:53.870Z,2.67
2023-01-11T21:14:23.578Z,2.86
2023-01-11T21:16:55.255Z,2.89
2023-01-11T21:19:24.420Z,2.95
2023-01-11T21:21:53.664Z,2.64
2023-01-11T21:24:22.833Z,2.72
2023-01-11T21:26:49.455Z,2.94
2023-01-11T21:29:18.490Z,3.05
2023-01-11T21:31:48.052Z,3.03
2023-01-11T21:34:18.016Z,2.77
2023-01-11T21:36:44.846Z,2.89
2023-01-11T21:39:16.305Z,2.97
2023-01-11T21:42:01.288Z,2.94
2023-01-11T21:44:33.792Z,2.39
2023-01-11T21:47:04.871Z,2.37
2023-01-11T21:49:32.452Z,2.60
2023-01-11T21:52:03.841Z,2.74
2023-01-11T21:54:35.353Z,2.74
2023-01-11T21:57:07.932Z,2.20
2023-01-11T22:03:25.799Z,2.64
2023-01-11T22:05:52.761Z,2.69
2023-01-11T22:08:23.562Z,2.71
2023-01-11T22:11:00.651Z,2.70
2023-01-11T22:13:37.167Z,2.70
2023-01-11T22:16:16.128Z,2.71
2023-01-11T22:18:46.263Z,2.64
2023-01-11T22:21:18.260Z,2.66
2023-01-11T22:23:51.672Z,2.27
2023-01-11T22:26:21.674Z,2.15
2023-01-11T22:29:12.053Z,2.19
2023-01-11T22:31:40.873Z,2.24
2023-01-11T22:34:07.616Z,2.32
2023-01-11T22:36:34.191Z,2.24
2023-01-11T22:39:10.668Z,2.26
2023-01-11T22:41:37.526Z,2.08
2023-01-11T22:44:04.139Z,2.12
2023-01-11T22:46:30.963Z,2.31
2023-01-11T22:49:02.453Z,2.21
2023-01-11T22:51:29.359Z,2.17
2023-01-11T22:53:58.372Z,1.95
2023-01-11T22:56:26.643Z,1.79
2023-01-11T22:58:54.125Z,1.95
2023-01-11T23:01:24.974Z,1.87
2023-01-11T23:03:52.972Z,1.75
2023-01-11T23:06:25.870Z,1.81
2023-01-11T23:08:53.279Z,1.74
2023-01-11T23:11:46.110Z,1.90
2023-01-11T23:14:17.859Z,2.19
2023-01-11T23:16:48.340Z,2.05
2023-01-11T23:19:17.917Z,2.04
2023-01-11T23:21:48.304Z,2.13
2023-01-11T23:24:16.304Z,2.24
2023-01-11T23:26:45.757Z,2.33
2023-01-11T23:29:12.875Z,2.38
2023-01-11T23:31:43.323Z,2.11
2023-01-11T23:34:13.890Z,2.31
2023-01-11T23:36:43.246Z,2.33
2023-01-11T23:39:11.943Z,2.29
2023-01-11T23:41:57.069Z,2.08
2023-01-11T23:44:23.651Z,1.97
2023-01-11T23:47:11.868Z,1.85
2023-01-11T23:49:38.519Z,1.87
2023-01-11T23:52:09.800Z,1.90
2023-01-11T23:54:36.337Z,2.04
2023-01-11T23:57:06.049Z,2.05
2023-01-11T23:59:35.202Z,2.02
